createdAt,value
2018-04-14T00:00:40.065Z,95.2
2018-04-14T00:01:41.681Z,95.7
2018-04-14T00:02:43.292Z,95.1
2018-04-14T00:03:44.909Z,95.1
2018-04-14T00:04:46.524Z,94.1
2018-04-14T00:05:48.141Z,94.4
2018-04-14T00:06:49.752Z,94.4
2018-04-14T00:07:51.369Z,94.7
2018-04-14T00:08:52.980Z,95.3
2018-04-14T00:09:54.600Z,94.9
2018-04-14T00:10:56.210Z,94.5
2018-04-14T00:11:57.835Z,94.3
2018-04-14T00:12:59.444Z,94.4
2018-04-14T00:14:01.058Z,94.3
2018-04-14T00:15:02.668Z,93.7
2018-04-14T00:16:04.284Z,93.7
2018-04-14T00:17:05.896Z,93.4
2018-04-14T00:18:07.517Z,93.3
2018-04-14T00:19:09.128Z,93.9
2018-04-14T00:20:10.747Z,93.6
2018-04-14T00:21:12.358Z,93.6
2018-04-14T00:22:13.977Z,93.1
2018-04-14T00:23:15.587Z,93.0
2018-04-14T00:24:17.205Z,93.6
2018-04-14T00:25:18.817Z,93.6
2018-04-14T00:26:20.434Z,92.4
2018-04-14T00:27:22.047Z,92.7
2018-04-14T00:28:23.664Z,92.3
2018-04-14T00:29:25.272Z,92.3
2018-04-14T00:30:26.889Z,92.5
2018-04-14T00:31:28.502Z,92.6
2018-04-14T00:32:30.114Z,92.4
2018-04-14T00:33:31.733Z,92.2
2018-04-14T00:34:33.353Z,92.2
2018-04-14T00:35:34.957Z,92.3
2018-04-14T00:36:36.571Z,92.5
2018-04-14T00:37:38.187Z,93.0
2018-04-14T00:38:39.803Z,92.7
2018-04-14T00:39:41.453Z,92.4
2018-04-14T00:40:43.031Z,93.3
2018-04-14T00:41:44.643Z,93.1
2018-04-14T00:42:46.256Z,92.4
2018-04-14T00:43:47.873Z,93.1
2018-04-14T00:44:49.486Z,94.0
2018-04-14T00:45:51.101Z,94.1
2018-04-14T00:46:52.721Z,94.4
2018-04-14T00:47:54.331Z,94.3
2018-04-14T00:48:55.949Z,94.6
2018-04-14T00:49:57.559Z,95.0
2018-04-14T00:50:59.173Z,95.3
2018-04-14T00:52:00.788Z,95.2
2018-04-14T00:53:02.405Z,94.9
2018-04-14T00:54:04.017Z,95.4
2018-04-14T00:55:05.635Z,95.4
2018-04-14T00:56:07.248Z,95.5
2018-04-14T00:57:08.866Z,95.7
2018-04-14T00:58:10.481Z,95.7
2018-04-14T00:59:12.097Z,96.0
2018-04-14T01:00:13.720Z,95.9
2018-04-14T01:01:15.340Z,96.0
2018-04-14T01:02:16.950Z,96.5
2018-04-14T01:03:18.568Z,95.8
2018-04-14T01:04:20.183Z,95.8
2018-04-14T01:05:21.797Z,96.2
2018-04-14T01:06:23.408Z,95.7
2018-04-14T01:07:25.023Z,95.7
2018-04-14T01:08:26.641Z,96.3
2018-04-14T01:09:28.252Z,96.5
2018-04-14T01:10:29.872Z,96.0
2018-04-14T01:11:31.488Z,96.4
2018-04-14T01:12:33.097Z,96.2
2018-04-14T01:13:34.711Z,96.3
2018-04-14T01:14:36.329Z,96.5
2018-04-14T01:15:37.937Z,96.3
2018-04-14T01:16:39.552Z,96.3
2018-04-14T01:17:41.168Z,96.3
2018-04-14T01:18:42.779Z,96.8
2018-04-14T01:19:44.393Z,96.5
2018-04-14T01:20:46.008Z,95.8
2018-04-14T01:21:47.628Z,96.5
2018-04-14T01:22:49.238Z,95.9
2018-04-14T01:23:50.856Z,96.3
2018-04-14T01:24:52.468Z,95.6
2018-04-14T01:25:54.078Z,96.7
2018-04-14T01:26:55.696Z,96.3
2018-04-14T01:27:57.306Z,95.8
2018-04-14T01:28:58.923Z,96.5
2018-04-14T01:30:00.534Z,95.8
2018-04-14T01:31:02.153Z,96.1
2018-04-14T01:32:03.767Z,96.5
2018-04-14T01:33:05.385Z,96.6
2018-04-14T01:34:06.995Z,96.7
2018-04-14T01:35:08.605Z,97.1
2018-04-14T01:36:10.222Z,96.2
2018-04-14T01:37:11.835Z,96.7
2018-04-14T01:38:13.449Z,96.9
2018-04-14T01:39:15.068Z,96.5
2018-04-14T01:40:16.683Z,97.0
2018-04-14T01:41:19.203Z,97.0
2018-04-14T01:42:19.853Z,96.7
2018-04-14T01:43:21.470Z,96.6
2018-04-14T01:44:23.083Z,96.5
2018-04-14T01:45:24.697Z,96.2
2018-04-14T01:46:26.318Z,96.3
2018-04-14T01:47:27.931Z,96.6
2018-04-14T01:48:29.546Z,96.6
2018-04-14T01:49:31.163Z,96.6
2018-04-14T01:50:32.778Z,96.1
2018-04-14T01:51:34.389Z,96.5
2018-04-14T01:52:36.009Z,96.9
2018-04-14T01:53:37.623Z,96.8
2018-04-14T01:54:39.241Z,96.7
2018-04-14T01:55:40.852Z,96.6
2018-04-14T01:56:42.466Z,96.7
2018-04-14T01:57:44.079Z,97.0
2018-04-14T01:58:45.698Z,97.3
2018-04-14T01:59:47.309Z,97.2
2018-04-14T02:00:48.921Z,97.0
2018-04-14T02:01:50.540Z,97.0
2018-04-14T02:02:52.154Z,97.2
2018-04-14T02:03:53.764Z,97.1
2018-04-14T02:04:55.379Z,97.0
2018-04-14T02:05:56.992Z,97.2
2018-04-14T02:06:58.607Z,97.0
2018-04-14T02:08:00.224Z,97.0
2018-04-14T02:09:01.837Z,97.0
2018-04-14T02:10:03.449Z,96.7
2018-04-14T02:11:05.065Z,96.5
2018-04-14T02:12:06.676Z,96.3
2018-04-14T02:13:08.290Z,96.3
2018-04-14T02:14:09.908Z,96.1
2018-04-14T02:15:11.524Z,96.5
2018-04-14T02:16:13.139Z,96.5
2018-04-14T02:17:14.748Z,96.2
2018-04-14T02:18:16.365Z,96.1
2018-04-14T02:19:17.982Z,96.1
2018-04-14T02:20:19.595Z,95.6
2018-04-14T02:21:21.212Z,96.0
2018-04-14T02:22:22.831Z,96.1
2018-04-14T02:23:24.442Z,96.4
2018-04-14T02:24:26.058Z,95.7
2018-04-14T02:25:27.668Z,96.2
2018-04-14T02:26:29.284Z,95.8
2018-04-14T02:27:30.902Z,96.6
2018-04-14T02:28:32.514Z,95.8
2018-04-14T02:29:34.134Z,95.3
2018-04-14T02:30:35.741Z,95.1
2018-04-14T02:31:37.352Z,96.1
2018-04-14T02:32:38.972Z,95.3
2018-04-14T02:33:40.589Z,95.1
2018-04-14T02:34:42.199Z,95.6
2018-04-14T02:35:43.818Z,96.6
2018-04-14T02:36:45.432Z,95.9
2018-04-14T02:37:47.044Z,95.3
2018-04-14T02:38:48.657Z,95.6
2018-04-14T02:39:50.274Z,95.9
2018-04-14T02:40:51.891Z,96.0
2018-04-14T02:41:53.506Z,95.8
2018-04-14T02:42:55.117Z,96.2
2018-04-14T02:43:56.733Z,96.0
2018-04-14T02:44:58.346Z,96.3
2018-04-14T02:45:59.971Z,94.6
2018-04-14T02:47:01.575Z,94.9
2018-04-14T02:48:03.188Z,94.4
2018-04-14T02:49:04.805Z,95.3
2018-04-14T02:50:06.423Z,95.1
2018-04-14T02:51:08.035Z,95.1
2018-04-14T02:52:09.658Z,95.0
2018-04-14T02:53:11.263Z,94.9
2018-04-14T02:54:12.877Z,93.9
2018-04-14T02:55:14.491Z,93.3
2018-04-14T02:56:16.104Z,94.4
2018-04-14T02:57:17.723Z,94.1
2018-04-14T02:58:19.336Z,93.6
2018-04-14T02:59:20.951Z,94.1
2018-04-14T03:00:22.570Z,94.4
2018-04-14T03:01:24.178Z,94.5
2018-04-14T03:02:25.789Z,94.4
2018-04-14T03:03:27.407Z,94.8
2018-04-14T03:04:29.023Z,95.1
2018-04-14T03:05:30.636Z,94.1
2018-04-14T03:06:32.251Z,94.5
2018-04-14T03:07:33.863Z,94.6
2018-04-14T03:08:35.474Z,95.1
2018-04-14T03:09:37.091Z,95.0
2018-04-14T03:10:38.705Z,94.3
2018-04-14T03:11:40.322Z,95.1
2018-04-14T03:12:41.938Z,95.1
2018-04-14T03:13:43.548Z,94.4
2018-04-14T03:14:45.158Z,94.8
2018-04-14T03:15:46.776Z,94.7
2018-04-14T03:16:48.388Z,95.1
2018-04-14T03:17:50.005Z,95.3
2018-04-14T03:18:51.625Z,95.2
2018-04-14T03:19:53.242Z,95.1
2018-04-14T03:20:54.849Z,95.0
2018-04-14T03:21:56.466Z,96.1
2018-04-14T03:22:58.076Z,96.0
2018-04-14T03:23:59.694Z,95.9
2018-04-14T03:25:01.308Z,95.7
2018-04-14T03:26:02.925Z,95.9
2018-04-14T03:27:04.540Z,95.9
2018-04-14T03:28:06.149Z,95.9
2018-04-14T03:29:07.761Z,95.6
2018-04-14T03:30:09.373Z,95.6
2018-04-14T03:31:11.042Z,95.9
2018-04-14T03:32:12.605Z,95.0
2018-04-14T03:33:14.222Z,96.3
2018-04-14T03:34:15.831Z,96.2
2018-04-14T03:35:17.439Z,95.7
2018-04-14T03:36:19.055Z,96.1
2018-04-14T03:37:20.669Z,96.6
2018-04-14T03:38:22.282Z,96.6
2018-04-14T03:39:23.895Z,96.4
2018-04-14T03:40:25.515Z,95.8
2018-04-14T03:41:27.132Z,96.6
2018-04-14T03:42:28.742Z,96.2
2018-04-14T03:43:30.359Z,95.0
2018-04-14T03:44:31.968Z,94.9
2018-04-14T03:45:33.587Z,95.1
2018-04-14T03:46:35.203Z,94.6
2018-04-14T03:47:36.820Z,95.0
2018-04-14T03:48:38.431Z,94.4
2018-04-14T03:49:40.040Z,94.8
2018-04-14T03:50:41.658Z,95.0
2018-04-14T03:51:43.275Z,94.6
2018-04-14T03:52:44.885Z,95.2
2018-04-14T03:53:46.496Z,95.0
2018-04-14T03:54:48.116Z,95.2
2018-04-14T03:55:49.730Z,95.1
2018-04-14T03:56:51.343Z,95.3
2018-04-14T03:57:52.953Z,96.1
2018-04-14T03:58:54.569Z,95.1
2018-04-14T03:59:56.176Z,95.1
2018-04-14T04:00:57.795Z,95.3
2018-04-14T04:01:59.406Z,95.0
2018-04-14T04:03:01.026Z,95.0
2018-04-14T04:04:02.639Z,94.5
2018-04-14T04:05:04.253Z,94.1
2018-04-14T04:06:05.871Z,93.2
2018-04-14T04:07:07.479Z,92.4
2018-04-14T04:08:09.090Z,92.1
2018-04-14T04:09:10.706Z,91.7
2018-04-14T04:10:12.323Z,91.3
2018-04-14T04:11:13.935Z,91.0
2018-04-14T04:12:15.551Z,91.6
2018-04-14T04:13:17.161Z,91.9
2018-04-14T04:14:18.775Z,92.3
2018-04-14T04:15:20.394Z,92.5
2018-04-14T04:16:22.015Z,92.4
2018-04-14T04:17:23.625Z,91.9
2018-04-14T04:18:25.235Z,90.7
2018-04-14T04:19:26.857Z,90.7
2018-04-14T04:20:28.464Z,90.7
2018-04-14T04:21:30.081Z,90.8
2018-04-14T04:22:31.698Z,89.6
2018-04-14T04:23:33.313Z,90.3
2018-04-14T04:24:34.927Z,89.9
2018-04-14T04:25:36.544Z,90.3
2018-04-14T04:26:38.155Z,89.3
2018-04-14T04:27:39.773Z,90.1
2018-04-14T04:28:41.392Z,89.6
2018-04-14T04:29:43.851Z,89.3
2018-04-14T04:30:45.471Z,89.5
2018-04-14T04:31:47.080Z,89.0
2018-04-14T04:32:48.718Z,88.7
2018-04-14T04:33:50.303Z,89.1
2018-04-14T04:34:51.917Z,88.9
2018-04-14T04:35:53.535Z,89.4
2018-04-14T04:36:55.150Z,89.4
2018-04-14T04:37:56.769Z,90.0
2018-04-14T04:38:58.390Z,90.2
2018-04-14T04:40:00.001Z,91.1
2018-04-14T04:41:01.615Z,91.4
2018-04-14T04:42:03.235Z,91.2
2018-04-14T04:43:04.852Z,91.5
2018-04-14T04:44:06.468Z,92.2
2018-04-14T04:45:08.089Z,92.1
2018-04-14T04:46:09.706Z,92.3
2018-04-14T04:47:11.319Z,92.6
2018-04-14T04:48:12.943Z,92.2
2018-04-14T04:49:14.560Z,92.6
2018-04-14T04:50:16.180Z,93.4
2018-04-14T04:51:17.797Z,93.3
2018-04-14T04:52:19.410Z,93.4
2018-04-14T04:53:21.031Z,93.3
2018-04-14T04:54:22.641Z,94.1
2018-04-14T04:55:24.266Z,94.4
2018-04-14T04:56:25.877Z,94.3
2018-04-14T04:57:27.491Z,94.6
2018-04-14T04:58:29.168Z,94.6
2018-04-14T04:59:30.729Z,95.2
2018-04-14T05:00:32.353Z,95.0
2018-04-14T05:01:33.962Z,95.5
2018-04-14T05:02:35.586Z,95.2
2018-04-14T05:03:37.206Z,95.3
2018-04-14T05:04:38.825Z,95.1
2018-04-14T05:05:40.448Z,95.1
2018-04-14T05:06:42.068Z,95.1
2018-04-14T05:07:43.683Z,95.4
2018-04-14T05:08:45.303Z,95.3
2018-04-14T05:09:46.917Z,95.5
2018-04-14T05:10:48.538Z,95.6
2018-04-14T05:11:50.156Z,95.5
2018-04-14T05:12:51.771Z,96.0
2018-04-14T05:13:53.397Z,96.0
2018-04-14T05:14:55.010Z,96.3
2018-04-14T05:15:56.624Z,95.6
2018-04-14T05:16:58.245Z,95.6
2018-04-14T05:17:59.862Z,96.3
2018-04-14T05:19:01.477Z,96.3
2018-04-14T05:20:03.094Z,96.0
2018-04-14T05:21:04.711Z,95.9
2018-04-14T05:22:06.327Z,95.9
2018-04-14T05:23:07.942Z,96.0
2018-04-14T05:24:09.575Z,96.8
2018-04-14T05:25:11.179Z,96.8
2018-04-14T05:26:12.800Z,96.9
2018-04-14T05:27:14.413Z,96.6
2018-04-14T05:28:16.030Z,96.9
2018-04-14T05:29:17.657Z,96.6
2018-04-14T05:30:19.271Z,96.8
2018-04-14T05:31:20.882Z,97.3
2018-04-14T05:32:22.496Z,96.6
2018-04-14T05:33:24.117Z,96.8
2018-04-14T05:34:25.739Z,97.2
2018-04-14T05:35:27.353Z,97.9
2018-04-14T05:36:28.976Z,97.8
2018-04-14T05:37:30.611Z,97.7
2018-04-14T05:38:32.212Z,97.7
2018-04-14T05:39:33.832Z,97.3
2018-04-14T05:40:35.450Z,97.0
2018-04-14T05:41:37.070Z,96.9
2018-04-14T05:42:38.688Z,97.1
2018-04-14T05:43:40.308Z,97.2
2018-04-14T05:44:41.930Z,97.5
2018-04-14T05:45:43.547Z,97.7
2018-04-14T05:46:45.168Z,97.7
2018-04-14T05:47:46.784Z,97.7
2018-04-14T05:48:48.410Z,97.6
2018-04-14T05:49:50.026Z,97.7
2018-04-14T05:50:51.657Z,97.7
2018-04-14T05:51:53.762Z,97.8
2018-04-14T05:52:55.399Z,97.9
2018-04-14T05:53:57.020Z,98.6
2018-04-14T05:54:58.639Z,97.9
2018-04-14T05:56:00.256Z,98.7
2018-04-14T05:57:01.877Z,98.7
2018-04-14T05:58:03.496Z,98.7
2018-04-14T05:59:05.120Z,98.9
2018-04-14T06:00:06.790Z,98.3
2018-04-14T06:01:08.361Z,98.7
2018-04-14T06:02:09.978Z,98.8
2018-04-14T06:03:12.393Z,98.4
2018-04-14T06:04:14.019Z,99.1
2018-04-14T06:05:15.635Z,98.5
2018-04-14T06:06:17.259Z,99.1
2018-04-14T06:07:18.877Z,98.2
2018-04-14T06:08:20.495Z,99.1
2018-04-14T06:09:22.120Z,99.1
2018-04-14T06:10:23.744Z,98.9
2018-04-14T06:11:25.362Z,99.5
2018-04-14T06:12:26.981Z,99.3
2018-04-14T06:13:28.601Z,99.6
2018-04-14T06:14:30.221Z,98.9
2018-04-14T06:15:31.836Z,99.4
2018-04-14T06:16:33.461Z,99.7
2018-04-14T06:17:35.082Z,99.4
2018-04-14T06:18:36.701Z,99.6
2018-04-14T06:19:38.328Z,99.2
2018-04-14T06:20:39.942Z,99.1
2018-04-14T06:21:41.561Z,99.6
2018-04-14T06:22:43.184Z,99.9
2018-04-14T06:23:44.800Z,99.4
2018-04-14T06:24:46.425Z,99.6
2018-04-14T06:25:48.050Z,99.2
2018-04-14T06:26:49.671Z,99.9
2018-04-14T06:27:51.293Z,100.0
2018-04-14T06:28:52.915Z,100.0
2018-04-14T06:29:54.533Z,100.0
2018-04-14T06:30:56.161Z,100.0
2018-04-14T06:31:57.784Z,99.8
2018-04-14T06:32:59.402Z,100.0
2018-04-14T06:34:01.029Z,100.0
2018-04-14T06:35:02.650Z,100.0
2018-04-14T06:36:04.270Z,100.0
2018-04-14T06:37:05.888Z,100.0
2018-04-14T06:38:07.508Z,99.6
2018-04-14T06:39:09.137Z,100.0
2018-04-14T06:40:10.757Z,100.0
2018-04-14T06:41:12.378Z,100.0
2018-04-14T06:42:13.999Z,100.0
2018-04-14T06:43:15.620Z,100.0
2018-04-14T06:44:17.246Z,100.0
2018-04-14T06:45:18.869Z,100.0
2018-04-14T06:46:20.540Z,100.0
2018-04-14T06:47:22.111Z,100.0
2018-04-14T06:48:23.735Z,100.0
2018-04-14T06:49:25.352Z,100.0
2018-04-14T06:50:26.975Z,100.0
2018-04-14T06:51:28.597Z,100.0
2018-04-14T06:52:30.223Z,99.7
2018-04-14T06:53:31.840Z,100.0
2018-04-14T06:54:33.466Z,99.9
2018-04-14T06:55:35.086Z,99.5
2018-04-14T06:56:36.709Z,99.3
2018-04-14T06:57:38.328Z,99.1
2018-04-14T06:58:39.947Z,99.3
2018-04-14T06:59:41.571Z,98.8
2018-04-14T07:00:43.188Z,99.6
2018-04-14T07:01:44.815Z,99.1
2018-04-14T07:02:46.438Z,98.9
2018-04-14T07:03:48.063Z,98.5
2018-04-14T07:04:49.684Z,97.8
2018-04-14T07:05:51.308Z,98.3
2018-04-14T07:06:52.924Z,98.3
2018-04-14T07:07:54.550Z,98.3
2018-04-14T07:08:56.170Z,97.0
2018-04-14T07:09:57.810Z,96.3
2018-04-14T07:10:59.426Z,96.4
2018-04-14T07:12:01.049Z,95.9
2018-04-14T07:13:02.669Z,95.7
2018-04-14T07:14:04.294Z,95.2
2018-04-14T07:15:05.917Z,95.5
2018-04-14T07:16:07.538Z,95.4
2018-04-14T07:17:09.166Z,94.5
2018-04-14T07:18:10.784Z,94.5
2018-04-14T07:19:12.412Z,94.6
2018-04-14T07:20:14.025Z,94.2
2018-04-14T07:21:15.645Z,94.0
2018-04-14T07:22:17.272Z,94.4
2018-04-14T07:23:18.904Z,94.6
2018-04-14T07:24:20.516Z,94.0
2018-04-14T07:25:22.139Z,94.8
2018-04-14T07:26:23.763Z,94.4
2018-04-14T07:27:25.390Z,94.6
2018-04-14T07:28:27.014Z,94.4
2018-04-14T07:29:28.641Z,94.2
2018-04-14T07:30:30.260Z,93.5
2018-04-14T07:31:31.883Z,93.9
2018-04-14T07:32:33.507Z,94.5
2018-04-14T07:33:35.129Z,93.6
2018-04-14T07:34:36.753Z,93.6
2018-04-14T07:35:38.373Z,94.0
2018-04-14T07:36:39.998Z,93.5
2018-04-14T07:37:41.626Z,93.2
2018-04-14T07:38:43.244Z,92.8
2018-04-14T07:39:44.866Z,92.7
2018-04-14T07:40:46.489Z,92.6
2018-04-14T07:41:48.112Z,92.3
2018-04-14T07:42:49.732Z,91.7
2018-04-14T07:43:51.352Z,91.8
2018-04-14T07:44:52.980Z,91.4
2018-04-14T07:45:54.600Z,91.3
2018-04-14T07:46:56.225Z,91.2
2018-04-14T07:47:57.843Z,90.7
2018-04-14T07:48:59.474Z,90.4
2018-04-14T07:50:01.100Z,90.2
2018-04-14T07:51:02.727Z,89.9
2018-04-14T07:52:04.350Z,89.9
2018-04-14T07:53:05.979Z,88.9
2018-04-14T07:54:07.598Z,88.3
2018-04-14T07:55:09.227Z,88.1
2018-04-14T07:56:10.851Z,88.0
2018-04-14T07:57:12.477Z,87.2
2018-04-14T07:58:14.103Z,86.7
2018-04-14T07:59:15.732Z,86.2
2018-04-14T08:00:17.362Z,86.2
2018-04-14T08:01:18.982Z,85.6
2018-04-14T08:02:20.612Z,85.9
2018-04-14T08:03:22.234Z,85.5
2018-04-14T08:04:23.860Z,85.2
2018-04-14T08:05:25.493Z,83.6
2018-04-14T08:06:27.119Z,83.2
2018-04-14T08:07:28.746Z,83.4
2018-04-14T08:08:30.367Z,83.2
2018-04-14T08:09:32.003Z,83.5
2018-04-14T08:10:33.624Z,82.2
2018-04-14T08:11:35.285Z,81.9
2018-04-14T08:12:36.875Z,81.9
2018-04-14T08:13:38.506Z,82.8
2018-04-14T08:14:40.133Z,81.5
2018-04-14T08:15:41.765Z,79.2
2018-04-14T08:16:43.383Z,78.1
2018-04-14T08:17:45.015Z,76.2
2018-04-14T08:18:46.639Z,75.4
2018-04-14T08:19:48.271Z,75.2
2018-04-14T08:20:49.896Z,74.9
2018-04-14T08:21:51.534Z,73.5
2018-04-14T08:22:53.155Z,72.6
2018-04-14T08:23:54.784Z,72.5
2018-04-14T08:24:56.409Z,71.8
2018-04-14T08:25:58.044Z,70.0
2018-04-14T08:26:59.669Z,68.1
2018-04-14T08:28:01.308Z,67.3
2018-04-14T08:29:02.939Z,67.7
2018-04-14T08:30:04.574Z,67.7
2018-04-14T08:31:06.193Z,66.5
2018-04-14T08:32:07.823Z,65.8
2018-04-14T08:33:09.458Z,64.7
2018-04-14T08:34:11.088Z,62.9
2018-04-14T08:35:12.718Z,62.8
2018-04-14T08:36:14.365Z,61.5
2018-04-14T08:37:16.029Z,61.9
2018-04-14T08:38:17.623Z,62.5
2018-04-14T08:39:19.250Z,60.7
2018-04-14T08:40:20.880Z,60.0
2018-04-14T08:41:22.513Z,59.7
2018-04-14T08:42:24.147Z,59.3
2018-04-14T08:43:25.784Z,60.3
2018-04-14T08:44:27.411Z,59.7
2018-04-14T08:45:29.040Z,58.9
2018-04-14T08:46:30.676Z,57.0
2018-04-14T08:47:33.224Z,55.8
2018-04-14T08:48:34.852Z,56.8
2018-04-14T08:49:36.486Z,57.2
2018-04-14T08:50:38.125Z,56.5
2018-04-14T08:51:39.755Z,55.2
2018-04-14T08:52:41.390Z,53.4
2018-04-14T08:53:43.018Z,51.6
2018-04-14T08:54:44.650Z,50.7
2018-04-14T08:55:46.293Z,50.6
2018-04-14T08:56:47.922Z,51.7
2018-04-14T08:57:49.559Z,52.4
2018-04-14T08:58:51.194Z,51.5
2018-04-14T08:59:52.824Z,49.7
2018-04-14T09:00:54.465Z,50.0
2018-04-14T09:01:56.131Z,50.6
2018-04-14T09:02:57.729Z,50.9
2018-04-14T09:03:59.368Z,50.3
2018-04-14T09:05:01.003Z,48.8
2018-04-14T09:06:02.640Z,49.9
2018-04-14T09:07:04.277Z,51.6
2018-04-14T09:08:05.908Z,53.5
2018-04-14T09:09:07.585Z,53.9
2018-04-14T09:10:09.178Z,54.8
2018-04-14T09:11:10.813Z,55.1
2018-04-14T09:12:12.454Z,55.8
2018-04-14T09:13:14.086Z,55.9
2018-04-14T09:14:15.723Z,57.3
2018-04-14T09:15:17.357Z,57.1
2018-04-14T09:16:18.986Z,56.3
2018-04-14T09:17:20.626Z,56.6
2018-04-14T09:18:22.259Z,57.8
2018-04-14T09:19:23.898Z,57.6
2018-04-14T09:20:25.526Z,58.6
2018-04-14T09:21:27.160Z,60.1
2018-04-14T09:22:28.789Z,62.4
2018-04-14T09:23:30.422Z,63.5
2018-04-14T09:24:32.057Z,64.2
2018-04-14T09:25:33.692Z,65.2
2018-04-14T09:26:35.320Z,65.0
2018-04-14T09:27:36.957Z,65.7
2018-04-14T09:28:38.580Z,65.6
2018-04-14T09:29:40.208Z,65.1
2018-04-14T09:30:41.843Z,66.0
2018-04-14T09:31:43.475Z,66.9
2018-04-14T09:32:45.110Z,67.2
2018-04-14T09:33:46.759Z,67.0
2018-04-14T09:34:48.371Z,67.6
2018-04-14T09:35:50.004Z,66.7
2018-04-14T09:36:51.632Z,66.7
2018-04-14T09:37:53.290Z,65.4
2018-04-14T09:38:54.907Z,65.9
2018-04-14T09:39:56.544Z,66.1
2018-04-14T09:40:58.173Z,67.4
2018-04-14T09:41:59.803Z,68.5
2018-04-14T09:43:01.431Z,69.5
2018-04-14T09:44:03.057Z,69.4
2018-04-14T09:45:04.689Z,69.4
2018-04-14T09:46:06.319Z,68.4
2018-04-14T09:47:07.951Z,67.1
2018-04-14T09:48:09.588Z,64.9
2018-04-14T09:49:11.213Z,64.6
2018-04-14T09:50:12.849Z,62.4
2018-04-14T09:51:14.475Z,62.2
2018-04-14T09:52:16.110Z,62.4
2018-04-14T09:53:17.777Z,61.4
2018-04-14T09:54:19.387Z,59.8
2018-04-14T09:55:21.030Z,59.3
2018-04-14T09:56:22.660Z,60.2
2018-04-14T09:57:24.287Z,62.0
2018-04-14T09:58:25.919Z,62.1
2018-04-14T09:59:27.549Z,63.0
2018-04-14T10:00:29.181Z,63.1
2018-04-14T10:01:30.823Z,62.6
2018-04-14T10:02:32.453Z,62.7
2018-04-14T10:03:34.081Z,61.7
2018-04-14T10:04:35.709Z,60.9
2018-04-14T10:05:37.893Z,60.3
2018-04-14T10:06:39.527Z,59.6
2018-04-14T10:07:41.161Z,59.3
2018-04-14T10:08:42.793Z,58.5
2018-04-14T10:09:44.435Z,59.1
2018-04-14T10:10:46.073Z,60.6
2018-04-14T10:11:47.693Z,60.8
2018-04-14T10:12:49.330Z,60.6
2018-04-14T10:13:50.961Z,60.8
2018-04-14T10:14:52.597Z,61.1
2018-04-14T10:15:54.236Z,60.0
2018-04-14T10:16:55.866Z,58.8
2018-04-14T10:17:57.500Z,58.2
2018-04-14T10:18:59.129Z,56.8
2018-04-14T10:20:00.768Z,55.1
2018-04-14T10:21:02.406Z,53.7
2018-04-14T10:22:04.042Z,53.4
2018-04-14T10:23:05.681Z,52.8
2018-04-14T10:24:07.318Z,51.0
2018-04-14T10:25:08.956Z,50.9
2018-04-14T10:26:10.593Z,50.9
2018-04-14T10:27:12.223Z,50.6
2018-04-14T10:28:13.866Z,50.8
2018-04-14T10:29:15.505Z,51.7
2018-04-14T10:30:17.140Z,51.6
2018-04-14T10:31:18.799Z,53.4
2018-04-14T10:32:20.458Z,52.6
2018-04-14T10:33:22.062Z,53.3
2018-04-14T10:34:23.700Z,53.5
2018-04-14T10:35:25.331Z,54.0
2018-04-14T10:36:26.972Z,54.9
2018-04-14T10:37:28.611Z,54.8
2018-04-14T10:38:30.249Z,55.3
2018-04-14T10:39:31.877Z,56.0
2018-04-14T10:40:33.530Z,56.2
2018-04-14T10:41:35.158Z,56.2
2018-04-14T10:42:36.793Z,56.5
2018-04-14T10:43:38.429Z,57.1
2018-04-14T10:44:40.075Z,57.6
2018-04-14T10:45:41.700Z,57.1
2018-04-14T10:46:43.333Z,56.7
2018-04-14T10:47:44.966Z,57.4
2018-04-14T10:48:46.596Z,57.8
2018-04-14T10:49:48.228Z,57.7
2018-04-14T10:50:49.864Z,57.7
2018-04-14T10:51:51.498Z,57.9
2018-04-14T10:52:53.128Z,58.3
2018-04-14T10:53:54.759Z,57.1
2018-04-14T10:54:56.386Z,57.3
2018-04-14T10:55:58.024Z,57.9
2018-04-14T10:56:59.648Z,58.9
2018-04-14T10:58:01.286Z,59.7
2018-04-14T10:59:02.913Z,59.7
2018-04-14T11:00:04.542Z,60.2
2018-04-14T11:01:06.176Z,61.0
2018-04-14T11:02:07.804Z,61.7
2018-04-14T11:03:09.438Z,62.2
2018-04-14T11:04:11.065Z,62.8
2018-04-14T11:05:12.959Z,62.9
2018-04-14T11:06:14.595Z,63.1
2018-04-14T11:07:16.223Z,62.6
2018-04-14T11:08:17.852Z,62.9
2018-04-14T11:09:19.483Z,63.3
2018-04-14T11:10:21.114Z,62.7
2018-04-14T11:11:22.747Z,62.4
2018-04-14T11:12:24.379Z,63.7
2018-04-14T11:13:26.012Z,63.7
2018-04-14T11:14:27.640Z,64.8
2018-04-14T11:15:29.272Z,65.1
2018-04-14T11:16:30.907Z,66.6
2018-04-14T11:17:32.529Z,66.4
2018-04-14T11:18:34.163Z,66.7
2018-04-14T11:19:35.788Z,65.4
2018-04-14T11:20:37.456Z,63.9
2018-04-14T11:21:39.047Z,64.0
2018-04-14T11:22:40.680Z,64.1
2018-04-14T11:23:42.306Z,63.6
2018-04-14T11:24:43.938Z,63.9
2018-04-14T11:25:45.566Z,64.0
2018-04-14T11:26:47.206Z,63.7
2018-04-14T11:27:48.839Z,62.6
2018-04-14T11:28:50.468Z,61.6
2018-04-14T11:29:52.101Z,60.1
2018-04-14T11:30:53.735Z,58.3
2018-04-14T11:31:55.364Z,58.3
2018-04-14T11:32:56.998Z,58.4
2018-04-14T11:33:58.633Z,56.6
2018-04-14T11:35:00.269Z,56.4
2018-04-14T11:36:01.907Z,55.1
2018-04-14T11:37:03.540Z,55.0
2018-04-14T11:38:05.177Z,53.5
2018-04-14T11:39:06.816Z,52.4
2018-04-14T11:40:08.448Z,51.7
2018-04-14T11:41:10.091Z,51.0
2018-04-14T11:42:11.720Z,50.3
2018-04-14T11:43:13.427Z,49.2
2018-04-14T11:44:15.063Z,50.6
2018-04-14T11:45:16.775Z,49.6
2018-04-14T11:46:18.418Z,48.6
2018-04-14T11:47:20.048Z,47.6
2018-04-14T11:48:21.696Z,47.1
2018-04-14T11:49:23.331Z,47.6
2018-04-14T11:50:24.973Z,47.2
2018-04-14T11:51:26.610Z,48.0
2018-04-14T11:52:28.247Z,47.9
2018-04-14T11:53:29.889Z,46.9
2018-04-14T11:54:31.524Z,47.3
2018-04-14T11:55:33.162Z,46.3
2018-04-14T11:56:34.805Z,46.4
2018-04-14T11:57:36.443Z,46.9
2018-04-14T11:58:38.087Z,46.6
2018-04-14T11:59:39.719Z,46.3
2018-04-14T12:00:41.357Z,46.9
2018-04-14T12:01:42.995Z,47.1
2018-04-14T12:02:44.635Z,47.1
2018-04-14T12:03:46.329Z,47.4
2018-04-14T12:04:47.912Z,48.1
2018-04-14T12:05:49.553Z,48.3
2018-04-14T12:06:51.190Z,48.1
2018-04-14T12:07:52.831Z,48.2
2018-04-14T12:08:54.467Z,46.9
2018-04-14T12:09:56.702Z,45.9
2018-04-14T12:10:58.362Z,45.8
2018-04-14T12:11:59.997Z,45.0
2018-04-14T12:13:01.638Z,45.1
2018-04-14T12:14:03.280Z,44.4
2018-04-14T12:15:04.919Z,44.1
2018-04-14T12:16:06.555Z,43.1
2018-04-14T12:17:08.192Z,42.9
2018-04-14T12:18:09.832Z,42.8
2018-04-14T12:19:11.476Z,43.1
2018-04-14T12:20:13.113Z,43.0
2018-04-14T12:21:14.754Z,43.1
2018-04-14T12:22:16.393Z,44.1
2018-04-14T12:23:18.026Z,44.0
2018-04-14T12:24:19.671Z,42.1
2018-04-14T12:25:21.307Z,43.0
2018-04-14T12:26:22.952Z,42.0
2018-04-14T12:27:24.584Z,42.6
2018-04-14T12:28:26.283Z,42.7
2018-04-14T12:29:27.867Z,42.5
2018-04-14T12:30:29.503Z,42.9
2018-04-14T12:31:31.148Z,45.0
2018-04-14T12:32:32.785Z,44.1
2018-04-14T12:33:34.431Z,43.9
2018-04-14T12:34:36.099Z,44.7
2018-04-14T12:35:37.705Z,44.7
2018-04-14T12:36:39.345Z,44.1
2018-04-14T12:37:40.981Z,44.1
2018-04-14T12:38:42.623Z,45.0
2018-04-14T12:39:44.267Z,45.4
2018-04-14T12:40:45.903Z,45.1
2018-04-14T12:41:47.542Z,45.5
2018-04-14T12:42:49.179Z,44.9
2018-04-14T12:43:50.813Z,44.0
2018-04-14T12:44:52.449Z,43.8
2018-04-14T12:45:54.091Z,44.0
2018-04-14T12:46:55.735Z,43.9
2018-04-14T12:47:57.369Z,43.9
2018-04-14T12:48:59.012Z,44.1
2018-04-14T12:50:00.644Z,43.7
2018-04-14T12:51:02.281Z,44.0
2018-04-14T12:52:03.923Z,44.9
2018-04-14T12:53:05.559Z,45.0
2018-04-14T12:54:07.211Z,44.6
2018-04-14T12:55:08.841Z,45.5
2018-04-14T12:56:10.479Z,45.0
2018-04-14T12:57:12.115Z,44.0
2018-04-14T12:58:13.755Z,44.7
2018-04-14T12:59:15.396Z,43.7
2018-04-14T13:00:17.028Z,44.0
2018-04-14T13:01:18.677Z,44.1
2018-04-14T13:02:20.309Z,45.0
2018-04-14T13:03:21.950Z,44.0
2018-04-14T13:04:23.586Z,44.0
2018-04-14T13:05:25.220Z,44.9
2018-04-14T13:06:26.865Z,45.2
2018-04-14T13:07:28.498Z,45.1
2018-04-14T13:08:30.142Z,44.2
2018-04-14T13:09:31.785Z,43.3
2018-04-14T13:10:33.417Z,43.0
2018-04-14T13:11:35.059Z,41.7
2018-04-14T13:12:36.697Z,41.0
2018-04-14T13:13:38.332Z,41.2
2018-04-14T13:14:39.973Z,40.0
2018-04-14T13:15:41.606Z,41.2
2018-04-14T13:16:43.250Z,42.2
2018-04-14T13:17:44.882Z,42.0
2018-04-14T13:18:46.527Z,42.6
2018-04-14T13:19:48.157Z,43.9
2018-04-14T13:20:49.796Z,43.4
2018-04-14T13:21:51.432Z,42.4
2018-04-14T13:22:53.070Z,41.6
2018-04-14T13:23:54.710Z,40.9
2018-04-14T13:24:56.378Z,41.1
2018-04-14T13:25:57.979Z,41.0
2018-04-14T13:26:59.619Z,41.2
2018-04-14T13:28:01.261Z,41.6
2018-04-14T13:29:02.892Z,40.3
2018-04-14T13:30:04.534Z,40.7
2018-04-14T13:31:06.169Z,41.8
2018-04-14T13:32:07.807Z,43.1
2018-04-14T13:33:09.438Z,42.9
2018-04-14T13:34:11.077Z,44.3
2018-04-14T13:35:12.710Z,45.6
2018-04-14T13:36:14.345Z,46.3
2018-04-14T13:37:15.991Z,46.8
2018-04-14T13:38:17.625Z,46.1
2018-04-14T13:39:19.260Z,45.1